createdAt,value
2023-03-13T00:01:13.595Z,2.53
2023-03-13T00:03:41.453Z,2.42
2023-03-13T00:06:11.033Z,2.08
2023-03-13T00:08:38.731Z,2.70
2023-03-13T00:11:07.440Z,1.90
2023-03-13T00:13:35.655Z,1.50
2023-03-13T00:16:03.809Z,2.50
2023-03-13T00:18:31.480Z,2.95
2023-03-13T00:21:00.346Z,2.35
2023-03-13T00:23:30.125Z,2.90
2023-03-13T00:25:59.286Z,2.42
2023-03-13T00:28:31.368Z,1.73
2023-03-13T00:31:04.137Z,2.17
2023-03-13T00:33:32.851Z,2.15
2023-03-13T00:36:01.460Z,1.95
2023-03-13T00:38:33.541Z,2.85
2023-03-13T00:41:03.386Z,2.03
2023-03-13T00:43:32.689Z,2.13
2023-03-13T00:46:00.552Z,2.28
2023-03-13T00:48:28.662Z,2.45
2023-03-13T00:50:56.658Z,2.10
2023-03-13T00:53:24.697Z,2.28
2023-03-13T00:55:56.026Z,2.45
2023-03-13T00:58:24.791Z,2.55
2023-03-13T01:00:53.153Z,3.08
2023-03-13T01:03:22.878Z,1.77
2023-03-13T01:05:57.541Z,2.35
2023-03-13T01:08:25.418Z,1.70
2023-03-13T01:11:00.630Z,2.30
2023-03-13T01:13:29.139Z,1.85
2023-03-13T01:15:57.158Z,2.67
2023-03-13T01:18:24.879Z,3.10
2023-03-13T01:20:52.592Z,1.77
2023-03-13T01:23:20.607Z,3.10
2023-03-13T01:25:48.302Z,1.30
2023-03-13T01:28:17.274Z,2.70
2023-03-13T01:30:44.969Z,2.17
2023-03-13T01:33:12.695Z,1.38
2023-03-13T01:35:40.439Z,1.95
2023-03-13T01:38:09.093Z,1.95
2023-03-13T01:40:40.911Z,2.47
2023-03-13T01:43:28.341Z,1.35
2023-03-13T01:46:02.493Z,2.10
2023-03-13T01:48:36.437Z,2.03
2023-03-13T01:51:08.537Z,2.03
2023-03-13T01:53:40.328Z,2.05
2023-03-13T01:56:12.972Z,2.38
2023-03-13T01:58:42.403Z,2.15
2023-03-13T02:01:10.984Z,2.40
2023-03-13T02:03:39.503Z,1.80
2023-03-13T02:06:09.128Z,2.55
2023-03-13T02:08:41.628Z,3.03
2023-03-13T02:11:20.245Z,2.15
2023-03-13T02:13:51.006Z,3.00
2023-03-13T02:16:20.133Z,2.28
2023-03-13T02:18:49.019Z,2.58
2023-03-13T02:21:27.679Z,1.80
2023-03-13T02:24:03.783Z,1.77
2023-03-13T02:26:32.798Z,1.90
2023-03-13T02:29:00.826Z,2.08
2023-03-13T02:31:28.634Z,2.03
2023-03-13T02:33:56.894Z,2.40
2023-03-13T02:36:24.683Z,2.38
2023-03-13T02:38:57.220Z,1.92
2023-03-13T02:41:26.796Z,2.15
2023-03-13T02:43:55.710Z,2.10
2023-03-13T02:46:23.489Z,3.00
2023-03-13T02:48:53.692Z,2.78
2023-03-13T02:51:26.555Z,2.35
2023-03-13T02:53:58.657Z,1.98
2023-03-13T02:56:28.872Z,2.03
2023-03-13T02:58:58.026Z,3.05
2023-03-13T03:01:25.641Z,1.73
2023-03-13T03:03:53.441Z,2.88
2023-03-13T03:06:21.506Z,1.60
2023-03-13T03:08:49.167Z,3.15
2023-03-13T03:11:16.849Z,3.05
2023-03-13T03:13:44.679Z,2.30
2023-03-13T03:16:18.592Z,1.90
2023-03-13T03:18:46.490Z,2.45
2023-03-13T03:21:14.628Z,2.25
2023-03-13T03:23:42.328Z,1.92
2023-03-13T03:26:10.577Z,2.20
2023-03-13T03:28:39.356Z,2.70
2023-03-13T03:31:08.682Z,1.63
2023-03-13T03:33:38.487Z,2.35
2023-03-13T03:36:08.372Z,2.15
2023-03-13T03:38:37.512Z,2.22
2023-03-13T03:41:05.484Z,2.45
2023-03-13T03:43:33.720Z,1.95
2023-03-13T03:46:01.812Z,1.50
2023-03-13T03:48:29.858Z,2.33
2023-03-13T03:50:58.931Z,2.63
2023-03-13T03:53:28.115Z,2.58
2023-03-13T03:55:55.800Z,2.58
2023-03-13T03:58:23.622Z,2.97
2023-03-13T04:00:51.460Z,1.92
2023-03-13T04:03:19.574Z,1.58
2023-03-13T04:05:47.231Z,1.73
2023-03-13T04:08:16.814Z,2.78
2023-03-13T04:10:44.685Z,1.95
2023-03-13T04:13:12.592Z,2.13
2023-03-13T04:15:41.174Z,2.53
2023-03-13T04:18:09.002Z,2.75
2023-03-13T04:20:37.462Z,3.15
2023-03-13T04:23:05.324Z,2.28
2023-03-13T04:25:34.202Z,2.53
2023-03-13T04:28:01.816Z,3.42
2023-03-13T04:30:29.558Z,2.50
2023-03-13T04:32:57.316Z,3.63
2023-03-13T04:35:25.104Z,3.45
2023-03-13T04:37:52.800Z,1.70
2023-03-13T04:40:20.451Z,1.80
2023-03-13T04:42:49.419Z,1.60
2023-03-13T04:45:17.164Z,2.58
2023-03-13T04:47:44.869Z,2.00
2023-03-13T04:50:12.575Z,2.08
2023-03-13T04:52:40.269Z,1.95
2023-03-13T04:55:08.305Z,1.73
2023-03-13T04:57:35.931Z,1.73
2023-03-13T05:00:06.370Z,1.75
2023-03-13T05:02:34.011Z,2.70
2023-03-13T05:05:01.748Z,1.73
2023-03-13T05:07:29.500Z,1.85
2023-03-13T05:09:57.244Z,2.70
2023-03-13T05:12:24.946Z,1.98
2023-03-13T05:14:53.653Z,2.00
2023-03-13T05:17:22.635Z,1.30
2023-03-13T05:19:50.317Z,1.10
2023-03-13T05:22:17.996Z,1.15
2023-03-13T05:24:45.758Z,2.65
2023-03-13T05:27:13.377Z,1.98
2023-03-13T05:29:41.009Z,1.73
2023-03-13T05:32:08.767Z,1.13
2023-03-13T05:34:37.714Z,1.58
2023-03-13T05:37:05.361Z,1.83
2023-03-13T05:39:33.029Z,1.45
2023-03-13T05:42:00.650Z,1.75
2023-03-13T05:44:28.330Z,0.88
2023-03-13T05:46:56.093Z,1.73
2023-03-13T05:49:23.915Z,1.55
2023-03-13T05:51:52.973Z,1.25
2023-03-13T05:54:20.837Z,1.85
2023-03-13T05:56:50.385Z,1.05
2023-03-13T05:59:18.141Z,0.68
2023-03-13T06:01:45.798Z,1.73
2023-03-13T06:04:13.454Z,1.52
2023-03-13T06:06:41.165Z,1.50
2023-03-13T06:09:11.616Z,1.13
2023-03-13T06:11:41.662Z,0.85
2023-03-13T06:14:09.579Z,1.80
2023-03-13T06:16:37.274Z,1.63
2023-03-13T06:19:04.976Z,1.35
2023-03-13T06:21:32.699Z,1.48
2023-03-13T06:24:01.872Z,1.30
2023-03-13T06:26:30.970Z,0.95
2023-03-13T06:28:58.860Z,1.20
2023-03-13T06:31:26.668Z,0.95
2023-03-13T06:33:55.193Z,1.08
2023-03-13T06:36:23.067Z,4.70
2023-03-13T06:38:50.892Z,4.93
2023-03-13T06:41:18.594Z,2.38
2023-03-13T06:43:47.573Z,4.82
2023-03-13T06:46:18.814Z,6.80
2023-03-13T06:48:46.602Z,4.72
2023-03-13T06:51:15.658Z,2.35
2023-03-13T06:53:44.071Z,1.38
2023-03-13T06:56:11.763Z,1.60
2023-03-13T06:58:39.463Z,0.93
2023-03-13T07:01:10.038Z,2.38
2023-03-13T07:03:38.428Z,2.63
2023-03-13T07:06:06.870Z,3.40
2023-03-13T07:08:36.141Z,2.47
2023-03-13T07:11:06.130Z,1.48
2023-03-13T07:13:34.005Z,1.00
2023-03-13T07:16:04.508Z,0.82
2023-03-13T07:18:34.284Z,0.80
2023-03-13T07:21:05.089Z,1.30
2023-03-13T07:23:34.084Z,1.02
2023-03-13T07:26:03.475Z,0.70
2023-03-13T07:28:31.820Z,1.02
2023-03-13T07:31:05.828Z,1.20
2023-03-13T07:33:35.081Z,1.17
2023-03-13T07:36:02.817Z,0.70
2023-03-13T07:38:31.480Z,1.27
2023-03-13T07:40:59.667Z,1.00
2023-03-13T07:43:27.881Z,0.93
2023-03-13T07:45:56.922Z,0.50
2023-03-13T07:48:25.714Z,0.52
2023-03-13T07:50:56.293Z,0.52
2023-03-13T07:53:24.514Z,0.82
2023-03-13T07:55:57.132Z,0.82
2023-03-13T07:58:26.487Z,1.30
2023-03-13T08:00:54.717Z,1.10
2023-03-13T08:03:23.733Z,0.80
2023-03-13T08:06:01.655Z,1.20
2023-03-13T08:08:30.134Z,0.80
2023-03-13T08:11:02.225Z,1.02
2023-03-13T08:13:30.322Z,1.25
2023-03-13T08:16:05.691Z,1.08
2023-03-13T08:18:34.968Z,0.88
2023-03-13T08:21:05.652Z,0.70
2023-03-13T08:23:33.841Z,1.00
2023-03-13T08:26:06.724Z,1.05
2023-03-13T08:28:35.214Z,1.20
2023-03-13T08:31:09.405Z,1.27
2023-03-13T08:33:39.143Z,1.20
2023-03-13T08:36:18.217Z,1.20
2023-03-13T08:38:47.054Z,0.65
2023-03-13T08:41:16.762Z,1.13
2023-03-13T08:43:45.549Z,1.13
2023-03-13T08:46:13.859Z,1.20
2023-03-13T08:48:42.073Z,1.17
2023-03-13T08:51:12.107Z,1.38
2023-03-13T08:53:42.823Z,2.75
2023-03-13T08:56:12.109Z,1.25
2023-03-13T08:58:40.496Z,1.55
2023-03-13T09:01:10.098Z,1.33
2023-03-13T09:03:37.859Z,1.95
2023-03-13T09:06:06.600Z,0.85
2023-03-13T09:08:35.395Z,1.95
2023-03-13T09:11:06.418Z,1.90
2023-03-13T09:13:35.726Z,1.35
2023-03-13T09:16:05.520Z,1.65
2023-03-13T09:18:33.693Z,1.70
2023-03-13T09:21:01.829Z,1.70
2023-03-13T09:23:29.535Z,1.58
2023-03-13T09:25:58.567Z,1.38
2023-03-13T09:28:28.256Z,1.33
2023-03-13T09:30:56.351Z,1.70
2023-03-13T09:33:27.918Z,1.35
2023-03-13T09:35:55.618Z,1.80
2023-03-13T09:38:23.320Z,1.30
2023-03-13T09:41:05.281Z,0.98
2023-03-13T09:43:44.371Z,1.30
2023-03-13T09:46:15.868Z,1.60
2023-03-13T09:48:46.771Z,1.73
2023-03-13T09:51:19.250Z,1.08
2023-03-13T09:53:53.209Z,1.17
2023-03-13T09:56:25.105Z,0.90
2023-03-13T09:59:01.613Z,1.33
2023-03-13T10:01:31.427Z,1.25
2023-03-13T10:04:06.519Z,1.42
2023-03-13T10:06:39.966Z,1.75
2023-03-13T10:09:20.231Z,1.83
2023-03-13T10:11:58.786Z,2.33
2023-03-13T10:14:32.282Z,1.40
2023-03-13T10:17:06.819Z,1.50
2023-03-13T10:19:38.386Z,1.48
2023-03-13T10:22:14.183Z,1.27
2023-03-13T10:24:50.166Z,1.02
2023-03-13T10:27:17.997Z,1.30
2023-03-13T10:29:47.047Z,1.08
2023-03-13T10:32:16.719Z,1.13
2023-03-13T10:34:53.848Z,1.48
2023-03-13T10:37:23.755Z,1.58
2023-03-13T10:39:51.662Z,1.45
2023-03-13T10:42:24.412Z,1.42
2023-03-13T10:45:00.138Z,1.60
2023-03-13T10:47:28.591Z,1.33
2023-03-13T10:49:58.844Z,1.35
2023-03-13T10:52:35.876Z,1.48
2023-03-13T10:55:06.699Z,1.42
2023-03-13T10:57:38.451Z,1.75
2023-03-13T11:00:29.761Z,1.45
2023-03-13T11:02:58.067Z,2.05
2023-03-13T11:05:43.504Z,1.00
2023-03-13T11:08:22.862Z,2.00
2023-03-13T11:10:57.285Z,2.38
2023-03-13T11:13:36.355Z,1.48
2023-03-13T11:16:18.587Z,1.55
2023-03-13T11:19:08.017Z,1.55
2023-03-13T11:21:45.424Z,1.58
2023-03-13T11:24:19.036Z,2.15
2023-03-13T11:27:04.275Z,2.03
2023-03-13T11:29:42.555Z,2.30
2023-03-13T11:32:24.008Z,2.50
2023-03-13T11:34:55.360Z,2.08
2023-03-13T11:37:24.247Z,1.98
2023-03-13T11:39:58.780Z,2.08
2023-03-13T11:42:45.889Z,2.33
2023-03-13T11:45:29.143Z,1.48
2023-03-13T11:48:06.796Z,2.20
2023-03-13T11:50:40.858Z,2.13
2023-03-13T11:53:28.506Z,1.63
2023-03-13T11:56:15.524Z,2.30
2023-03-13T11:58:56.878Z,1.35
2023-03-13T12:01:28.504Z,2.28
2023-03-13T12:04:00.662Z,1.73
2023-03-13T12:06:32.110Z,1.05
2023-03-13T12:09:07.467Z,2.03
2023-03-13T12:11:43.729Z,2.33
2023-03-13T12:14:16.668Z,1.45
2023-03-13T12:16:48.947Z,1.85
2023-03-13T12:19:28.135Z,2.13
2023-03-13T12:22:00.650Z,1.83
2023-03-13T12:24:33.986Z,1.35
2023-03-13T12:27:09.335Z,1.63
2023-03-13T12:29:44.400Z,0.90
2023-03-13T12:32:17.789Z,2.00
2023-03-13T12:34:56.415Z,1.40
2023-03-13T12:37:31.846Z,1.58
2023-03-13T12:40:09.413Z,1.77
2023-03-13T12:42:46.809Z,1.90
2023-03-13T12:45:18.526Z,1.77
2023-03-13T12:48:21.308Z,1.50
2023-03-13T12:51:04.586Z,1.48
2023-03-13T12:53:53.605Z,1.48
2023-03-13T12:56:45.355Z,1.38
2023-03-13T12:59:20.053Z,1.83
2023-03-13T13:01:50.624Z,1.25
2023-03-13T13:04:20.811Z,1.70
2023-03-13T13:06:57.820Z,1.52
2023-03-13T13:09:27.908Z,1.60
2023-03-13T13:11:58.014Z,1.77
2023-03-13T13:15:16.203Z,1.55
2023-03-13T13:17:52.472Z,0.77
2023-03-13T13:20:36.512Z,1.88
2023-03-13T13:23:33.697Z,1.40
2023-03-13T13:26:49.404Z,1.50
2023-03-13T13:29:58.330Z,1.02
2023-03-13T13:32:35.173Z,1.30
2023-03-13T13:35:06.367Z,1.35
2023-03-13T13:37:34.607Z,1.88
2023-03-13T13:40:20.608Z,0.93
2023-03-13T13:42:50.948Z,1.23
2023-03-13T13:45:26.713Z,1.17
2023-03-13T13:48:17.283Z,1.25
2023-03-13T13:51:34.060Z,1.30
2023-03-13T13:54:03.156Z,1.23
2023-03-13T13:56:38.574Z,0.98
2023-03-13T13:59:31.528Z,1.05
2023-03-13T14:02:32.960Z,1.02
2023-03-13T14:05:04.142Z,0.85
2023-03-13T14:07:44.051Z,0.80
2023-03-13T14:10:22.594Z,0.82
2023-03-13T14:12:55.491Z,0.82
2023-03-13T14:15:25.219Z,0.60
2023-03-13T14:17:55.412Z,1.00
2023-03-13T14:20:27.779Z,0.68
2023-03-13T14:22:57.974Z,0.82
2023-03-13T14:25:29.052Z,0.68
2023-03-13T14:27:58.154Z,0.60
2023-03-13T14:30:27.252Z,0.90
2023-03-13T14:32:55.021Z,0.63
2023-03-13T14:35:23.497Z,0.88
2023-03-13T14:37:53.199Z,0.63
2023-03-13T14:40:25.633Z,0.65
2023-03-13T14:42:56.170Z,0.90
2023-03-13T14:45:29.741Z,0.95
2023-03-13T14:48:03.617Z,0.70
2023-03-13T14:50:31.412Z,0.75
2023-03-13T14:53:04.046Z,1.20
2023-03-13T14:55:35.602Z,1.13
2023-03-13T14:58:05.104Z,0.70
2023-03-13T15:00:41.086Z,0.93
2023-03-13T15:03:25.501Z,0.68
2023-03-13T15:06:07.291Z,0.77
2023-03-13T15:08:36.476Z,0.70
2023-03-13T15:11:19.184Z,0.60
2023-03-13T15:13:47.066Z,1.05
2023-03-13T15:16:20.056Z,1.08
2023-03-13T15:18:48.789Z,0.28
2023-03-13T15:21:28.815Z,0.43
2023-03-13T15:24:00.507Z,0.70
2023-03-13T15:26:29.001Z,0.65
2023-03-13T15:28:56.637Z,1.50
2023-03-13T15:31:28.706Z,0.52
2023-03-13T15:34:01.586Z,0.80
2023-03-13T15:36:31.320Z,0.65
2023-03-13T15:38:59.038Z,0.80
2023-03-13T15:41:26.754Z,0.50
2023-03-13T15:43:56.821Z,0.98
2023-03-13T15:46:26.992Z,0.63
2023-03-13T15:48:54.688Z,0.80
2023-03-13T15:51:22.373Z,0.80
2023-03-13T15:53:50.153Z,0.35
2023-03-13T15:56:20.094Z,1.60
2023-03-13T15:58:48.836Z,1.15
2023-03-13T16:01:18.157Z,2.28
2023-03-13T16:03:47.181Z,1.10
2023-03-13T16:06:17.724Z,0.90
2023-03-13T16:08:47.513Z,0.73
2023-03-13T16:11:17.505Z,0.90
2023-03-13T16:13:45.526Z,0.65
2023-03-13T16:16:21.584Z,0.57
2023-03-13T16:18:52.212Z,0.40
2023-03-13T16:21:21.995Z,0.70
2023-03-13T16:23:50.202Z,0.60
2023-03-13T16:26:20.437Z,0.88
2023-03-13T16:28:48.529Z,0.82
2023-03-13T16:31:19.638Z,0.82
2023-03-13T16:33:48.357Z,1.23
2023-03-13T16:36:19.602Z,0.93
2023-03-13T16:38:48.316Z,0.90
2023-03-13T16:41:17.666Z,0.70
2023-03-13T16:43:45.873Z,0.57
2023-03-13T16:46:15.809Z,0.88
2023-03-13T16:48:43.829Z,0.57
2023-03-13T16:51:20.963Z,1.10
2023-03-13T16:53:50.613Z,0.70
2023-03-13T16:56:26.702Z,1.00
2023-03-13T16:58:54.609Z,0.70
2023-03-13T17:01:23.374Z,0.75
2023-03-13T17:03:51.228Z,0.95
2023-03-13T17:06:23.050Z,1.30
2023-03-13T17:08:51.012Z,1.00
2023-03-13T17:11:21.143Z,0.98
2023-03-13T17:13:49.984Z,1.13
2023-03-13T17:16:19.509Z,0.77
2023-03-13T17:18:49.048Z,0.82
2023-03-13T17:21:18.829Z,1.02
2023-03-13T17:23:48.110Z,0.98
2023-03-13T17:26:19.483Z,0.88
2023-03-13T17:28:49.300Z,1.30
2023-03-13T17:31:17.732Z,1.00
2023-03-13T17:33:46.274Z,0.80
2023-03-13T17:36:20.267Z,1.10
2023-03-13T17:38:51.546Z,0.82
2023-03-13T17:41:20.547Z,1.40
2023-03-13T17:43:48.808Z,0.73
2023-03-13T17:46:19.901Z,2.92
2023-03-13T17:48:48.704Z,3.95
2023-03-13T17:51:19.916Z,4.32
2023-03-13T17:53:50.272Z,3.70
2023-03-13T17:56:20.912Z,2.05
2023-03-13T17:58:50.282Z,3.55
2023-03-13T18:01:21.038Z,1.75
2023-03-13T18:03:50.083Z,1.70
2023-03-13T18:06:22.474Z,1.02
2023-03-13T18:08:53.959Z,1.02
2023-03-13T18:11:23.223Z,1.40
2023-03-13T18:13:51.196Z,1.73
2023-03-13T18:16:23.967Z,1.55
2023-03-13T18:18:51.793Z,1.20
2023-03-13T18:21:19.538Z,1.13
2023-03-13T18:23:47.206Z,1.10
2023-03-13T18:26:27.118Z,1.92
2023-03-13T18:28:59.899Z,0.93
2023-03-13T18:31:32.480Z,1.20
2023-03-13T18:34:00.518Z,1.30
2023-03-13T18:36:29.576Z,1.63
2023-03-13T18:38:57.856Z,0.73
2023-03-13T18:41:26.969Z,1.60
2023-03-13T18:43:54.679Z,1.73
2023-03-13T18:46:24.630Z,1.38
2023-03-13T18:48:52.396Z,1.10
2023-03-13T18:51:22.493Z,1.20
2023-03-13T18:53:50.078Z,1.35
2023-03-13T18:56:20.778Z,1.40
2023-03-13T18:58:53.122Z,1.77
2023-03-13T19:01:23.461Z,1.23
2023-03-13T19:03:53.721Z,1.27
2023-03-13T19:06:24.600Z,1.60
2023-03-13T19:08:54.568Z,1.40
2023-03-13T19:11:24.944Z,1.98
2023-03-13T19:13:54.377Z,1.42
2023-03-13T19:16:24.819Z,1.63
2023-03-13T19:18:53.052Z,1.70
2023-03-13T19:21:23.388Z,1.63
2023-03-13T19:23:52.107Z,1.45
2023-03-13T19:26:26.995Z,1.50
2023-03-13T19:28:56.135Z,1.30
2023-03-13T19:31:24.405Z,1.42
2023-03-13T19:33:55.356Z,0.95
2023-03-13T19:36:25.374Z,1.50
2023-03-13T19:38:53.026Z,0.90
2023-03-13T19:41:20.655Z,1.45
2023-03-13T19:43:48.829Z,0.95
2023-03-13T19:46:23.012Z,1.02
2023-03-13T19:48:53.624Z,2.03
2023-03-13T19:51:21.909Z,1.25
2023-03-13T19:53:49.813Z,1.13
2023-03-13T19:56:20.034Z,1.20
2023-03-13T19:58:48.880Z,1.30
2023-03-13T20:01:18.004Z,1.27
2023-03-13T20:03:47.482Z,1.05
2023-03-13T20:06:18.110Z,1.67
2023-03-13T20:08:46.339Z,1.27
2023-03-13T20:11:14.807Z,1.42
2023-03-13T20:13:43.418Z,1.30
2023-03-13T20:16:12.231Z,0.93
2023-03-13T20:18:40.968Z,3.20
2023-03-13T20:21:11.222Z,5.15
2023-03-13T20:23:38.903Z,3.70
2023-03-13T20:26:09.763Z,3.90
2023-03-13T20:28:38.256Z,2.88
2023-03-13T20:31:07.083Z,3.53
2023-03-13T20:33:35.240Z,4.53
2023-03-13T20:36:05.531Z,2.97
2023-03-13T20:38:35.605Z,2.00
2023-03-13T20:41:03.588Z,1.88
2023-03-13T20:43:31.980Z,1.45
2023-03-13T20:46:00.297Z,2.20
2023-03-13T20:48:28.622Z,2.33
2023-03-13T20:51:00.789Z,1.45
2023-03-13T20:53:29.287Z,1.48
2023-03-13T20:55:59.423Z,1.55
2023-03-13T20:58:27.105Z,1.20
2023-03-13T21:00:54.841Z,1.60
2023-03-13T21:03:22.762Z,1.27
2023-03-13T21:05:50.455Z,1.60
2023-03-13T21:08:18.264Z,1.27
2023-03-13T21:10:46.013Z,1.73
2023-03-13T21:13:15.153Z,2.00
2023-03-13T21:15:43.172Z,1.95
2023-03-13T21:18:11.105Z,1.90
2023-03-13T21:20:39.976Z,1.80
2023-03-13T21:23:07.654Z,3.00
2023-03-13T21:25:35.448Z,1.45
2023-03-13T21:28:03.224Z,1.23
2023-03-13T21:30:34.519Z,1.67
2023-03-13T21:33:02.217Z,1.52
2023-03-13T21:35:30.201Z,0.90
2023-03-13T21:37:58.530Z,1.35
2023-03-13T21:40:26.286Z,1.40
2023-03-13T21:42:54.046Z,1.45
2023-03-13T21:45:22.939Z,1.42
2023-03-13T21:47:52.387Z,1.60
2023-03-13T21:52:52.898Z,1.40
2023-03-13T21:55:20.781Z,1.33
2023-03-13T21:57:48.515Z,1.20
2023-03-13T22:00:16.960Z,1.50
2023-03-13T22:02:44.595Z,1.38
2023-03-13T22:05:13.730Z,1.40
2023-03-13T22:07:41.521Z,1.30
2023-03-13T22:10:10.307Z,1.48
2023-03-13T22:12:38.272Z,1.48
2023-03-13T22:15:07.162Z,1.27
2023-03-13T22:17:34.760Z,1.05
2023-03-13T22:20:02.408Z,1.58
2023-03-13T22:22:32.036Z,1.13
2023-03-13T22:24:59.686Z,2.28
2023-03-13T22:27:27.441Z,1.63
2023-03-13T22:29:56.903Z,1.30
2023-03-13T22:32:25.775Z,1.63
2023-03-13T22:34:53.581Z,1.42
2023-03-13T22:37:22.330Z,1.10
2023-03-13T22:39:53.957Z,1.63
2023-03-13T22:42:22.552Z,1.58
2023-03-13T22:44:50.133Z,1.42
2023-03-13T22:47:17.795Z,1.50
2023-03-13T22:49:45.402Z,1.38
2023-03-13T22:52:13.006Z,1.20
2023-03-13T22:54:40.620Z,1.20
2023-03-13T22:57:09.532Z,1.25
2023-03-13T22:59:37.259Z,0.93
2023-03-13T23:02:05.111Z,1.20
2023-03-13T23:04:32.720Z,1.27
2023-03-13T23:07:00.337Z,1.25
2023-03-13T23:09:28.109Z,1.77
2023-03-13T23:11:55.782Z,0.98
2023-03-13T23:14:28.898Z,1.23
2023-03-13T23:16:56.973Z,1.05
2023-03-13T23:19:24.892Z,1.00
2023-03-13T23:21:52.658Z,1.02
2023-03-13T23:24:20.296Z,1.08
2023-03-13T23:26:47.984Z,1.40
2023-03-13T23:29:16.358Z,1.30
2023-03-13T23:31:45.322Z,0.88
2023-03-13T23:34:12.960Z,1.10
2023-03-13T23:36:43.154Z,0.98
2023-03-13T23:39:10.815Z,1.10
2023-03-13T23:41:38.405Z,1.05
2023-03-13T23:44:06.098Z,1.17
2023-03-13T23:46:33.854Z,1.30
2023-03-13T23:49:02.762Z,1.00
2023-03-13T23:51:30.536Z,1.08
2023-03-13T23:53:58.198Z,1.02
2023-03-13T23:56:26.170Z,0.90
2023-03-13T23:58:54.954Z,1.02
